Roseville, Michigan
Current Conditions -  °F | °C
As of 3:08 AM on Tuesday 21 Oct 2014 (Local Time) from KMTC Reporting Station
Overcast Overcast  
Wind Chill: 46°   Ceiling: 1500
Heat Index: 48°   Visibility: 10mi
Dew Point: 48°   Wind: 6mph
Humidity: 100%   Direction: 310°NW
Pressure: 29.86"   Gusts: NA
Location:  42.52°N, 82.92°W
Report Text: KMTC 210708Z AUTO 31005KT 10SM OVC015 09/09 A2986 RMK AO2 OVC V BKN $
Loading
Personal Weather Stations






























Interactive Weather Map
Tropical Storm Tracking
New forecast layout! Learn more

10-Day Weather Forecast

Advertisements
Track Severe Weather on mobile